createdAt,value
2018-07-15T00:00:53.068Z,3.50
2018-07-15T00:01:56.500Z,3.52
2018-07-15T00:02:59.879Z,3.52
2018-07-15T00:04:03.271Z,3.67
2018-07-15T00:05:07.785Z,3.37
2018-07-15T00:06:11.617Z,3.42
2018-07-15T00:07:15.047Z,3.70
2018-07-15T00:08:18.435Z,3.62
2018-07-15T00:09:21.816Z,3.87
2018-07-15T00:10:26.561Z,3.60
2018-07-15T00:11:30.738Z,3.95
2018-07-15T00:12:34.136Z,3.50
2018-07-15T00:13:37.527Z,3.00
2018-07-15T00:14:40.935Z,3.33
2018-07-15T00:15:45.915Z,3.60
2018-07-15T00:16:49.332Z,3.80
2018-07-15T00:17:52.716Z,3.60
2018-07-15T00:18:56.103Z,3.40
2018-07-15T00:19:59.519Z,3.40
2018-07-15T00:21:03.898Z,3.85
2018-07-15T00:22:07.471Z,3.35
2018-07-15T00:23:10.859Z,3.20
2018-07-15T00:24:14.255Z,3.67
2018-07-15T00:25:18.694Z,3.75
2018-07-15T00:26:23.846Z,3.72
2018-07-15T00:27:27.316Z,3.62
2018-07-15T00:28:30.438Z,3.52
2018-07-15T00:29:33.819Z,4.03
2018-07-15T00:30:38.225Z,4.00
2018-07-15T00:31:41.664Z,4.03
2018-07-15T00:32:45.054Z,4.22
2018-07-15T00:33:48.436Z,4.15
2018-07-15T00:34:51.831Z,3.95
2018-07-15T00:35:55.663Z,4.53
2018-07-15T00:36:59.087Z,4.28
2018-07-15T00:38:02.493Z,4.55
2018-07-15T00:39:06.847Z,4.25
2018-07-15T00:40:11.360Z,4.22
2018-07-15T00:41:15.784Z,4.85
2018-07-15T00:42:19.190Z,4.70
2018-07-15T00:43:22.599Z,3.85
2018-07-15T00:44:25.881Z,3.60
2018-07-15T00:45:30.289Z,4.28
2018-07-15T00:46:33.426Z,3.72
2018-07-15T00:47:36.819Z,4.10
2018-07-15T00:48:40.207Z,4.92
2018-07-15T00:49:43.588Z,4.10
2018-07-15T00:50:48.289Z,4.00
2018-07-15T00:51:51.731Z,4.10
2018-07-15T00:52:55.115Z,3.72
2018-07-15T00:53:58.511Z,4.08
2018-07-15T00:55:01.908Z,4.12
2018-07-15T00:56:05.830Z,4.10
2018-07-15T00:57:09.224Z,3.60
2018-07-15T00:58:12.611Z,3.70
2018-07-15T00:59:16.001Z,3.40
2018-07-15T01:00:25.354Z,3.90
2018-07-15T01:01:29.367Z,4.15
2018-07-15T01:02:32.760Z,3.92
2018-07-15T01:03:36.143Z,3.50
2018-07-15T01:04:46.035Z,4.10
2018-07-15T01:05:51.372Z,3.67
2018-07-15T01:06:54.815Z,3.83
2018-07-15T01:07:58.191Z,4.20
2018-07-15T01:09:01.271Z,3.33
2018-07-15T01:10:04.815Z,3.70
2018-07-15T01:11:09.521Z,3.65
2018-07-15T01:12:12.955Z,3.80
2018-07-15T01:13:16.355Z,3.80
2018-07-15T01:14:19.740Z,3.52
2018-07-15T01:15:24.132Z,3.70
2018-07-15T01:16:27.774Z,3.55
2018-07-15T01:17:31.163Z,3.75
2018-07-15T01:18:34.567Z,3.65
2018-07-15T01:19:37.943Z,3.85
2018-07-15T01:20:42.376Z,3.98
2018-07-15T01:21:45.796Z,3.83
2018-07-15T01:22:48.878Z,3.77
2018-07-15T01:23:51.959Z,4.12
2018-07-15T01:24:55.035Z,3.60
2018-07-15T01:25:59.123Z,3.70
2018-07-15T01:27:02.543Z,3.80
2018-07-15T01:28:06.083Z,3.77
2018-07-15T01:29:09.483Z,4.30
2018-07-15T01:30:13.912Z,3.60
2018-07-15T01:31:18.561Z,4.00
2018-07-15T01:32:21.987Z,3.60
2018-07-15T01:33:25.420Z,3.47
2018-07-15T01:34:28.475Z,3.50
2018-07-15T01:35:32.793Z,4.00
2018-07-15T01:36:36.219Z,3.87
2018-07-15T01:37:39.651Z,3.70
2018-07-15T01:38:43.047Z,3.95
2018-07-15T01:39:46.131Z,3.62
2018-07-15T01:40:50.008Z,3.60
2018-07-15T01:41:53.127Z,3.75
2018-07-15T01:42:56.536Z,3.75
2018-07-15T01:43:59.923Z,3.70
2018-07-15T01:45:03.304Z,3.55
2018-07-15T01:46:07.993Z,3.87
2018-07-15T01:47:11.428Z,3.47
2018-07-15T01:48:14.873Z,3.70
2018-07-15T01:49:18.272Z,3.65
2018-07-15T01:50:22.663Z,3.60
2018-07-15T01:51:27.124Z,3.62
2018-07-15T01:52:30.563Z,4.03
2018-07-15T01:53:33.956Z,4.03
2018-07-15T01:54:37.343Z,3.87
2018-07-15T01:55:41.896Z,4.17
2018-07-15T01:56:45.335Z,3.83
2018-07-15T01:57:48.738Z,4.00
2018-07-15T01:58:52.143Z,4.22
2018-07-15T01:59:55.527Z,3.77
2018-07-15T02:01:00.429Z,3.60
2018-07-15T02:02:03.871Z,4.10
2018-07-15T02:03:06.962Z,3.90
2018-07-15T02:04:10.043Z,3.60
2018-07-15T02:05:13.915Z,3.80
2018-07-15T02:06:17.820Z,3.70
2018-07-15T02:07:21.231Z,3.98
2018-07-15T02:08:24.648Z,4.47
2018-07-15T02:09:28.047Z,3.60
2018-07-15T02:10:33.277Z,4.47
2018-07-15T02:11:36.687Z,3.92
2018-07-15T02:12:40.097Z,4.10
2018-07-15T02:13:43.479Z,4.17
2018-07-15T02:14:46.868Z,4.17
2018-07-15T02:15:51.985Z,4.10
2018-07-15T02:16:55.411Z,3.85
2018-07-15T02:17:58.815Z,3.92
2018-07-15T02:19:02.203Z,3.87
2018-07-15T02:20:07.418Z,3.85
2018-07-15T02:21:12.347Z,3.75
2018-07-15T02:22:15.791Z,4.08
2018-07-15T02:23:19.187Z,4.40
2018-07-15T02:24:22.571Z,3.90
2018-07-15T02:25:27.049Z,3.62
2018-07-15T02:26:30.306Z,3.70
2018-07-15T02:27:33.711Z,4.03
2018-07-15T02:28:37.115Z,3.40
2018-07-15T02:29:40.504Z,3.80
2018-07-15T02:30:44.321Z,3.95
2018-07-15T02:31:47.748Z,4.08
2018-07-15T02:32:51.147Z,3.77
2018-07-15T02:33:54.524Z,3.67
2018-07-15T02:34:57.908Z,3.98
2018-07-15T02:36:02.356Z,3.98
2018-07-15T02:37:06.075Z,4.33
2018-07-15T02:38:09.484Z,4.17
2018-07-15T02:39:12.889Z,4.35
2018-07-15T02:40:17.190Z,4.30
2018-07-15T02:41:21.561Z,4.00
2018-07-15T02:42:24.992Z,4.30
2018-07-15T02:43:28.384Z,4.45
2018-07-15T02:44:31.767Z,4.25
2018-07-15T02:45:36.181Z,3.95
2018-07-15T02:46:39.287Z,3.83
2018-07-15T02:47:42.467Z,4.05
2018-07-15T02:48:45.547Z,3.83
2018-07-15T02:49:48.642Z,3.80
2018-07-15T02:50:53.942Z,4.10
2018-07-15T02:51:57.042Z,3.95
2018-07-15T02:53:00.435Z,4.12
2018-07-15T02:54:03.876Z,3.90
2018-07-15T02:55:08.213Z,4.10
2018-07-15T02:56:12.605Z,4.20
2018-07-15T02:57:16.041Z,4.17
2018-07-15T02:58:19.452Z,3.33
2018-07-15T02:59:22.841Z,3.75
2018-07-15T03:00:29.538Z,3.83
2018-07-15T03:01:32.639Z,4.28
2018-07-15T03:02:35.726Z,4.15
2018-07-15T03:03:39.118Z,3.98
2018-07-15T03:04:42.509Z,3.95
2018-07-15T03:05:47.113Z,4.08
2018-07-15T03:06:50.532Z,4.17
2018-07-15T03:07:53.980Z,4.28
2018-07-15T03:08:57.355Z,4.22
2018-07-15T03:10:00.769Z,4.00
2018-07-15T03:11:05.163Z,4.25
2018-07-15T03:12:08.575Z,4.50
2018-07-15T03:13:11.973Z,4.40
2018-07-15T03:14:15.355Z,4.20
2018-07-15T03:15:19.702Z,4.05
2018-07-15T03:16:23.919Z,4.50
2018-07-15T03:17:27.479Z,4.50
2018-07-15T03:18:30.751Z,4.37
2018-07-15T03:19:34.140Z,3.80
2018-07-15T03:20:38.565Z,3.98
2018-07-15T03:21:41.963Z,4.37
2018-07-15T03:22:45.360Z,4.05
2018-07-15T03:23:48.438Z,4.10
2018-07-15T03:24:51.522Z,4.17
2018-07-15T03:25:56.023Z,4.12
2018-07-15T03:26:59.639Z,3.95
2018-07-15T03:28:03.038Z,4.05
2018-07-15T03:29:06.432Z,3.90
2018-07-15T03:30:10.991Z,3.95
2018-07-15T03:31:15.010Z,4.17
2018-07-15T03:32:18.431Z,3.83
2018-07-15T03:33:21.852Z,4.08
2018-07-15T03:34:25.243Z,3.72
2018-07-15T03:35:29.648Z,3.80
2018-07-15T03:36:33.875Z,3.80
2018-07-15T03:37:37.259Z,3.90
2018-07-15T03:38:40.647Z,4.10
2018-07-15T03:39:44.085Z,4.08
2018-07-15T03:40:48.564Z,4.15
2018-07-15T03:41:51.995Z,3.70
2018-07-15T03:42:55.406Z,4.25
2018-07-15T03:43:58.803Z,3.80
2018-07-15T03:45:02.187Z,4.30
2018-07-15T03:46:06.701Z,4.12
2018-07-15T03:47:10.130Z,3.55
2018-07-15T03:48:13.588Z,4.20
2018-07-15T03:49:16.674Z,4.17
2018-07-15T03:50:21.200Z,4.45
2018-07-15T03:51:25.084Z,4.03
2018-07-15T03:52:28.471Z,4.10
2018-07-15T03:53:31.568Z,3.80
2018-07-15T03:54:34.947Z,4.10
2018-07-15T03:55:39.579Z,4.50
2018-07-15T03:56:43.014Z,3.83
2018-07-15T03:57:46.403Z,3.98
2018-07-15T03:58:49.803Z,3.62
2018-07-15T03:59:52.887Z,3.98
2018-07-15T04:00:57.280Z,3.95
2018-07-15T04:02:00.728Z,4.22
2018-07-15T04:03:04.127Z,4.10
2018-07-15T04:04:07.511Z,4.70
2018-07-15T04:05:11.987Z,4.72
2018-07-15T04:06:16.383Z,4.40
2018-07-15T04:07:19.793Z,4.58
2018-07-15T04:08:23.238Z,4.28
2018-07-15T04:09:26.593Z,4.42
2018-07-15T04:10:30.995Z,4.10
2018-07-15T04:11:34.114Z,4.28
2018-07-15T04:12:37.259Z,4.30
2018-07-15T04:13:40.647Z,4.75
2018-07-15T04:14:44.049Z,5.00
2018-07-15T04:15:49.573Z,4.67
2018-07-15T04:16:52.980Z,4.72
2018-07-15T04:18:03.923Z,4.35
2018-07-15T04:19:07.307Z,4.97
2018-07-15T04:20:12.109Z,4.10
2018-07-15T04:21:16.658Z,4.62
2018-07-15T04:22:20.115Z,4.62
2018-07-15T04:23:23.508Z,4.33
2018-07-15T04:24:26.900Z,4.80
2018-07-15T04:25:31.833Z,4.87
2018-07-15T04:26:35.247Z,4.50
2018-07-15T04:27:38.631Z,4.40
2018-07-15T04:28:41.719Z,4.45
2018-07-15T04:29:44.794Z,4.53
2018-07-15T04:30:50.181Z,5.15
2018-07-15T04:31:53.596Z,4.47
2018-07-15T04:32:56.993Z,4.67
2018-07-15T04:34:00.384Z,4.97
2018-07-15T04:35:04.510Z,4.85
2018-07-15T04:36:10.149Z,4.78
2018-07-15T04:37:13.564Z,4.83
2018-07-15T04:38:16.959Z,5.25
2018-07-15T04:39:20.355Z,4.90
2018-07-15T04:40:25.232Z,4.60
2018-07-15T04:41:29.436Z,4.95
2018-07-15T04:42:32.834Z,5.15
2018-07-15T04:43:36.223Z,5.70
2018-07-15T04:44:39.660Z,5.20
2018-07-15T04:45:44.132Z,4.87
2018-07-15T04:46:47.588Z,4.70
2018-07-15T04:47:50.995Z,4.55
2018-07-15T04:48:54.398Z,4.70
2018-07-15T04:49:57.783Z,5.58
2018-07-15T04:51:02.919Z,4.78
2018-07-15T04:52:06.611Z,4.55
2018-07-15T04:53:10.004Z,4.90
2018-07-15T04:54:13.390Z,4.80
2018-07-15T04:55:17.894Z,5.72
2018-07-15T04:56:22.513Z,4.83
2018-07-15T04:57:25.979Z,5.00
2018-07-15T04:58:29.375Z,4.92
2018-07-15T04:59:32.755Z,5.05
2018-07-15T05:00:37.287Z,5.30
2018-07-15T05:01:41.699Z,5.20
2018-07-15T05:02:45.083Z,4.87
2018-07-15T05:03:48.479Z,4.67
2018-07-15T05:04:51.870Z,5.05
2018-07-15T05:05:55.594Z,5.92
2018-07-15T05:06:59.003Z,4.97
2018-07-15T05:08:02.395Z,5.22
2018-07-15T05:09:06.616Z,5.35
2018-07-15T05:10:11.133Z,4.83
2018-07-15T05:11:15.743Z,5.20
2018-07-15T05:12:19.188Z,4.90
2018-07-15T05:13:22.242Z,5.15
2018-07-15T05:14:25.404Z,5.17
2018-07-15T05:15:30.241Z,5.03
2018-07-15T05:16:34.827Z,5.35
2018-07-15T05:17:38.207Z,5.30
2018-07-15T05:18:41.607Z,5.22
2018-07-15T05:19:45.044Z,5.03
2018-07-15T05:20:49.514Z,5.15
2018-07-15T05:21:52.923Z,5.33
2018-07-15T05:22:56.306Z,5.03
2018-07-15T05:23:59.439Z,4.90
2018-07-15T05:25:03.069Z,4.80
2018-07-15T05:26:07.611Z,5.83
2018-07-15T05:27:11.037Z,5.10
2018-07-15T05:28:14.472Z,5.70
2018-07-15T05:29:17.859Z,5.37
2018-07-15T05:30:22.281Z,5.33
2018-07-15T05:31:26.612Z,5.15
2018-07-15T05:32:30.024Z,5.60
2018-07-15T05:33:33.420Z,5.58
2018-07-15T05:34:36.871Z,5.17
2018-07-15T05:35:41.366Z,5.17
2018-07-15T05:36:44.784Z,5.62
2018-07-15T05:37:48.163Z,5.87
2018-07-15T05:38:51.555Z,5.00
2018-07-15T05:39:54.967Z,5.70
2018-07-15T05:40:59.337Z,5.83
2018-07-15T05:42:02.764Z,5.78
2018-07-15T05:43:05.850Z,5.90
2018-07-15T05:44:09.294Z,5.80
2018-07-15T05:45:13.722Z,5.78
2018-07-15T05:46:18.225Z,5.85
2018-07-15T05:47:21.649Z,5.35
2018-07-15T05:48:25.040Z,5.90
2018-07-15T05:49:28.119Z,5.75
2018-07-15T05:50:32.558Z,6.10
2018-07-15T05:51:36.019Z,5.53
2018-07-15T05:52:39.417Z,5.83
2018-07-15T05:53:42.795Z,5.80
2018-07-15T05:54:46.176Z,5.97
2018-07-15T05:55:50.949Z,5.70
2018-07-15T05:56:54.367Z,6.10
2018-07-15T05:57:57.768Z,6.47
2018-07-15T05:59:01.156Z,6.10
2018-07-15T06:00:05.945Z,6.30
2018-07-15T06:01:10.374Z,5.78
2018-07-15T06:02:13.791Z,5.78
2018-07-15T06:03:17.207Z,6.10
2018-07-15T06:04:20.591Z,5.75
2018-07-15T06:05:26.826Z,5.90
2018-07-15T06:06:30.666Z,5.90
2018-07-15T06:07:34.035Z,6.62
2018-07-15T06:08:37.439Z,5.78
2018-07-15T06:09:40.522Z,6.28
2018-07-15T06:10:44.484Z,6.03
2018-07-15T06:11:47.848Z,6.55
2018-07-15T06:12:51.227Z,5.95
2018-07-15T06:13:54.635Z,5.85
2018-07-15T06:14:58.020Z,6.08
2018-07-15T06:16:03.058Z,6.33
2018-07-15T06:17:06.211Z,5.62
2018-07-15T06:18:09.588Z,6.40
2018-07-15T06:19:12.983Z,6.55
2018-07-15T06:20:17.293Z,6.20
2018-07-15T06:21:22.106Z,6.20
2018-07-15T06:22:25.503Z,6.62
2018-07-15T06:23:28.908Z,6.37
2018-07-15T06:24:32.332Z,6.65
2018-07-15T06:25:36.812Z,6.08
2018-07-15T06:26:40.215Z,6.62
2018-07-15T06:27:43.611Z,5.97
2018-07-15T06:28:46.690Z,6.75
2018-07-15T06:29:49.791Z,6.00
2018-07-15T06:30:54.362Z,6.08
2018-07-15T06:31:57.741Z,5.90
2018-07-15T06:33:01.147Z,5.97
2018-07-15T06:34:04.703Z,5.83
2018-07-15T06:35:08.372Z,5.97
2018-07-15T06:36:12.821Z,6.35
2018-07-15T06:37:16.284Z,6.40
2018-07-15T06:38:19.677Z,6.28
2018-07-15T06:39:23.056Z,6.00
2018-07-15T06:40:27.544Z,5.87
2018-07-15T06:41:31.862Z,6.10
2018-07-15T06:42:35.280Z,5.87
2018-07-15T06:43:38.669Z,6.10
2018-07-15T06:44:42.071Z,5.83
2018-07-15T06:45:46.512Z,5.92
2018-07-15T06:46:49.916Z,5.85
2018-07-15T06:47:53.331Z,5.62
2018-07-15T06:48:56.751Z,5.62
2018-07-15T06:50:00.159Z,5.80
2018-07-15T06:51:05.979Z,6.20
2018-07-15T06:52:09.403Z,6.58
2018-07-15T06:53:12.775Z,6.00
2018-07-15T06:54:16.203Z,6.00
2018-07-15T06:55:20.574Z,5.58
2018-07-15T06:56:24.862Z,6.78
2018-07-15T06:57:28.275Z,6.08
2018-07-15T06:58:31.671Z,6.12
2018-07-15T06:59:35.060Z,5.87
2018-07-15T07:00:39.427Z,5.45
2018-07-15T07:01:42.892Z,5.75
2018-07-15T07:02:46.276Z,5.67
2018-07-15T07:03:49.651Z,5.67
2018-07-15T07:04:53.075Z,5.00
2018-07-15T07:05:56.990Z,6.40
2018-07-15T07:07:00.423Z,5.65
2018-07-15T07:08:03.807Z,5.55
2018-07-15T07:09:07.608Z,5.50
2018-07-15T07:10:12.134Z,5.45
2018-07-15T07:11:15.907Z,5.83
2018-07-15T07:12:19.339Z,5.80
2018-07-15T07:13:22.448Z,5.67
2018-07-15T07:14:25.851Z,6.35
2018-07-15T07:15:30.738Z,5.85
2018-07-15T07:16:34.476Z,5.95
2018-07-15T07:17:37.900Z,5.83
2018-07-15T07:18:40.978Z,5.97
2018-07-15T07:19:44.390Z,5.37
2018-07-15T07:20:48.093Z,6.12
2018-07-15T07:21:51.771Z,5.40
2018-07-15T07:22:55.177Z,5.65
2018-07-15T07:23:58.617Z,6.08
2018-07-15T07:25:02.027Z,5.87
2018-07-15T07:26:06.655Z,6.17
2018-07-15T07:27:10.072Z,5.30
2018-07-15T07:28:13.519Z,5.80
2018-07-15T07:29:16.963Z,5.42
2018-07-15T07:30:21.607Z,5.60
2018-07-15T07:31:26.412Z,5.75
2018-07-15T07:32:29.858Z,5.42
2018-07-15T07:33:39.767Z,5.65
2018-07-15T07:34:43.147Z,5.87
2018-07-15T07:35:47.522Z,6.37
2018-07-15T07:36:51.192Z,6.22
2018-07-15T07:37:54.690Z,5.45
2018-07-15T07:38:58.078Z,5.85
2018-07-15T07:40:01.459Z,5.70
2018-07-15T07:41:05.779Z,5.75
2018-07-15T07:42:09.217Z,5.78
2018-07-15T07:43:12.660Z,5.53
2018-07-15T07:44:16.051Z,5.65
2018-07-15T07:45:20.475Z,5.30
2018-07-15T07:46:24.610Z,5.70
2018-07-15T07:47:28.016Z,5.45
2018-07-15T07:48:31.387Z,5.53
2018-07-15T07:49:34.807Z,5.65
2018-07-15T07:50:39.229Z,5.60
2018-07-15T07:51:42.664Z,5.35
2018-07-15T07:52:46.049Z,5.37
2018-07-15T07:53:49.448Z,4.95
2018-07-15T07:54:52.859Z,5.10
2018-07-15T07:55:57.811Z,4.78
2018-07-15T07:57:00.903Z,5.78
2018-07-15T07:58:04.643Z,5.20
2018-07-15T07:59:08.058Z,5.45
2018-07-15T08:00:12.556Z,5.42
2018-07-15T08:01:16.999Z,4.95
2018-07-15T08:02:20.409Z,4.95
2018-07-15T08:03:23.804Z,5.47
2018-07-15T08:04:27.286Z,5.30
2018-07-15T08:05:31.875Z,5.00
2018-07-15T08:06:35.332Z,5.20
2018-07-15T08:07:38.773Z,5.05
2018-07-15T08:08:42.115Z,5.35
2018-07-15T08:09:45.499Z,5.58
2018-07-15T08:10:50.396Z,4.67
2018-07-15T08:11:53.859Z,4.53
2018-07-15T08:12:57.251Z,4.92
2018-07-15T08:14:00.639Z,4.80
2018-07-15T08:15:04.479Z,5.15
2018-07-15T08:16:09.390Z,5.25
2018-07-15T08:17:12.483Z,4.30
2018-07-15T08:18:15.566Z,3.65
2018-07-15T08:19:18.951Z,3.90
2018-07-15T08:20:22.990Z,3.98
2018-07-15T08:21:27.476Z,4.25
2018-07-15T08:22:30.912Z,3.67
2018-07-15T08:23:34.287Z,3.92
2018-07-15T08:24:37.675Z,4.08
2018-07-15T08:25:42.590Z,3.83
2018-07-15T08:26:46.224Z,4.08
2018-07-15T08:27:49.611Z,3.85
2018-07-15T08:28:52.999Z,3.67
2018-07-15T08:30:08.242Z,4.00
2018-07-15T08:31:15.637Z,3.40
2018-07-15T08:32:19.091Z,3.35
2018-07-15T08:33:22.467Z,3.62
2018-07-15T08:34:25.855Z,3.90
2018-07-15T08:35:30.393Z,3.77
2018-07-15T08:36:33.531Z,3.77
2018-07-15T08:37:36.914Z,5.70
2018-07-15T08:38:40.747Z,4.78
2018-07-15T08:39:44.143Z,4.03
2018-07-15T08:40:48.541Z,4.30
2018-07-15T08:41:51.951Z,5.53
2018-07-15T08:42:55.386Z,4.15
2018-07-15T08:43:58.772Z,4.03
2018-07-15T08:45:02.265Z,3.70
2018-07-15T08:46:07.073Z,3.62
2018-07-15T08:47:10.484Z,3.05
2018-07-15T08:48:13.863Z,3.52
2018-07-15T08:49:17.255Z,2.90
2018-07-15T08:50:21.777Z,3.25
2018-07-15T08:51:25.873Z,3.45
2018-07-15T08:52:29.307Z,3.15
2018-07-15T08:53:32.398Z,3.00
2018-07-15T08:54:35.997Z,3.12
2018-07-15T08:55:40.375Z,3.75
2018-07-15T08:56:43.478Z,3.10
2018-07-15T08:57:46.662Z,3.25
2018-07-15T08:58:50.025Z,2.92
2018-07-15T08:59:53.427Z,3.65
2018-07-15T09:00:58.039Z,3.50
2018-07-15T09:02:01.468Z,3.83
2018-07-15T09:03:04.881Z,3.40
2018-07-15T09:04:08.303Z,3.65
2018-07-15T09:05:12.731Z,3.22
2018-07-15T09:06:17.652Z,3.42
2018-07-15T09:07:21.067Z,4.00
2018-07-15T09:08:24.467Z,4.30
2018-07-15T09:09:27.840Z,3.90
2018-07-15T09:10:32.264Z,3.58
2018-07-15T09:11:35.390Z,3.87
2018-07-15T09:12:38.501Z,4.20
2018-07-15T09:13:41.891Z,3.83
2018-07-15T09:14:45.264Z,3.33
2018-07-15T09:15:49.811Z,3.95
2018-07-15T09:16:53.203Z,3.50
2018-07-15T09:17:56.589Z,3.65
2018-07-15T09:18:59.999Z,4.03
2018-07-15T09:20:03.456Z,3.95
2018-07-15T09:21:07.765Z,3.55
2018-07-15T09:22:11.168Z,3.95
2018-07-15T09:23:14.551Z,3.45
2018-07-15T09:24:18.523Z,3.80
2018-07-15T09:25:22.878Z,3.35
2018-07-15T09:26:27.398Z,3.75
2018-07-15T09:27:30.794Z,3.62
2018-07-15T09:28:34.175Z,3.92
2018-07-15T09:29:37.587Z,3.65
2018-07-15T09:30:42.067Z,4.08
2018-07-15T09:31:45.480Z,3.17
2018-07-15T09:32:48.866Z,3.00
2018-07-15T09:33:52.251Z,3.35
2018-07-15T09:34:55.647Z,3.12
2018-07-15T09:36:00.193Z,2.77
2018-07-15T09:37:03.616Z,3.00
2018-07-15T09:38:07.028Z,2.80
2018-07-15T09:39:10.421Z,3.50
2018-07-15T09:40:14.887Z,3.40
2018-07-15T09:41:19.223Z,3.22
2018-07-15T09:42:22.636Z,2.77
2018-07-15T09:43:26.016Z,3.08
2018-07-15T09:44:29.431Z,2.60
2018-07-15T09:45:33.869Z,2.90
2018-07-15T09:46:37.287Z,2.60
2018-07-15T09:47:40.672Z,2.62
2018-07-15T09:48:44.052Z,2.60
2018-07-15T09:49:47.454Z,2.70
2018-07-15T09:50:52.136Z,2.70
2018-07-15T09:51:55.671Z,2.40
2018-07-15T09:52:59.059Z,2.52
2018-07-15T09:54:02.445Z,2.55
2018-07-15T09:55:06.111Z,2.30
2018-07-15T09:56:10.542Z,2.55
2018-07-15T09:57:13.944Z,2.67
2018-07-15T09:58:17.394Z,2.80
2018-07-15T09:59:20.432Z,2.55
2018-07-15T10:00:29.954Z,2.50
2018-07-15T10:01:33.383Z,2.70
2018-07-15T10:02:36.771Z,2.45
2018-07-15T10:03:40.159Z,2.70
2018-07-15T10:04:43.619Z,2.60
2018-07-15T10:05:48.047Z,2.52
2018-07-15T10:06:51.451Z,2.47
2018-07-15T10:07:54.843Z,2.47
2018-07-15T10:08:58.236Z,2.65
2018-07-15T10:10:01.640Z,2.80
2018-07-15T10:11:06.083Z,2.70
2018-07-15T10:12:09.520Z,2.20
2018-07-15T10:13:12.988Z,2.30
2018-07-15T10:14:16.381Z,2.80
2018-07-15T10:15:21.113Z,2.17
2018-07-15T10:16:25.850Z,2.35
2018-07-15T10:17:28.955Z,2.45
2018-07-15T10:18:32.037Z,2.67
2018-07-15T10:19:35.428Z,2.37
2018-07-15T10:20:39.116Z,2.40
2018-07-15T10:21:42.547Z,2.62
2018-07-15T10:22:45.933Z,2.40
2018-07-15T10:23:55.964Z,2.40
2018-07-15T10:24:59.355Z,2.72
2018-07-15T10:26:03.804Z,1.98
2018-07-15T10:27:07.233Z,2.72
2018-07-15T10:28:13.596Z,2.90
2018-07-15T10:29:16.984Z,2.60
2018-07-15T10:30:21.512Z,2.72
2018-07-15T10:31:25.942Z,2.98
2018-07-15T10:32:29.394Z,2.40
2018-07-15T10:33:32.791Z,2.25
2018-07-15T10:34:36.163Z,2.62
2018-07-15T10:35:40.561Z,2.33
2018-07-15T10:36:43.964Z,2.80
2018-07-15T10:37:47.359Z,2.58
2018-07-15T10:38:50.792Z,2.40
2018-07-15T10:39:53.875Z,2.30
2018-07-15T10:40:58.728Z,2.50
2018-07-15T10:42:02.139Z,2.40
2018-07-15T10:43:05.551Z,2.33
2018-07-15T10:44:08.935Z,2.17
2018-07-15T10:45:14.015Z,2.40
2018-07-15T10:46:19.384Z,2.50
2018-07-15T10:47:22.535Z,2.60
2018-07-15T10:48:25.935Z,2.55
2018-07-15T10:49:29.311Z,2.50
2018-07-15T10:50:34.222Z,2.50
2018-07-15T10:51:37.671Z,1.90
2018-07-15T10:52:40.776Z,2.40
2018-07-15T10:53:44.166Z,2.50
2018-07-15T10:54:47.547Z,2.70
2018-07-15T10:55:52.045Z,2.25
2018-07-15T10:56:55.438Z,2.50
2018-07-15T10:57:58.838Z,2.42
2018-07-15T10:59:02.227Z,2.08
2018-07-15T11:00:06.963Z,2.10
2018-07-15T11:01:11.504Z,1.95
2018-07-15T11:02:14.687Z,2.00
2018-07-15T11:03:18.084Z,2.20
2018-07-15T11:04:21.484Z,2.00
2018-07-15T11:05:25.167Z,1.90
2018-07-15T11:06:29.417Z,2.40
2018-07-15T11:07:32.708Z,2.10
2018-07-15T11:08:36.131Z,1.95
2018-07-15T11:09:39.519Z,2.10
2018-07-15T11:10:44.922Z,2.30
2018-07-15T11:11:48.332Z,2.40
2018-07-15T11:12:51.719Z,2.37
2018-07-15T11:13:55.135Z,2.17
2018-07-15T11:14:58.771Z,1.90
2018-07-15T11:16:03.221Z,2.15
2018-07-15T11:17:06.635Z,2.33
2018-07-15T11:18:10.032Z,1.82
2018-07-15T11:19:13.427Z,2.15
2018-07-15T11:20:17.535Z,1.95
2018-07-15T11:21:21.974Z,1.50
2018-07-15T11:22:25.406Z,2.00
2018-07-15T11:23:28.817Z,1.80
2018-07-15T11:24:32.232Z,1.70
2018-07-15T11:25:36.599Z,2.02
2018-07-15T11:26:40.005Z,1.90
2018-07-15T11:27:43.392Z,1.70
2018-07-15T11:28:46.787Z,1.70
2018-07-15T11:29:50.244Z,1.75
2018-07-15T11:30:54.832Z,1.72
2018-07-15T11:31:58.215Z,1.70
2018-07-15T11:33:01.291Z,1.70
2018-07-15T11:34:04.372Z,1.60
2018-07-15T11:35:07.885Z,2.02
2018-07-15T11:36:12.256Z,1.45
2018-07-15T11:37:15.664Z,1.67
2018-07-15T11:38:19.043Z,1.60
2018-07-15T11:39:22.127Z,1.50
2018-07-15T11:40:25.978Z,1.42
2018-07-15T11:41:29.919Z,1.55
2018-07-15T11:42:33.312Z,1.60
2018-07-15T11:43:36.703Z,1.47
2018-07-15T11:44:40.092Z,1.22
2018-07-15T11:45:45.169Z,1.30
2018-07-15T11:46:48.291Z,1.30
2018-07-15T11:47:51.842Z,1.62
2018-07-15T11:48:55.239Z,1.50
2018-07-15T11:49:58.623Z,1.65
2018-07-15T11:51:02.967Z,1.60
2018-07-15T11:52:06.371Z,1.50
2018-07-15T11:53:09.763Z,1.40
2018-07-15T11:54:13.151Z,1.40
2018-07-15T11:55:17.423Z,1.50
2018-07-15T11:56:21.885Z,1.42
2018-07-15T11:57:25.295Z,1.70
2018-07-15T11:58:28.688Z,1.40
2018-07-15T11:59:31.770Z,1.50
2018-07-15T12:00:36.727Z,1.55
2018-07-15T12:01:40.237Z,1.22
2018-07-15T12:02:43.631Z,1.45
2018-07-15T12:03:47.023Z,1.40
2018-07-15T12:04:50.428Z,1.70
2018-07-15T12:05:54.977Z,1.37
2018-07-15T12:06:58.411Z,1.30
2018-07-15T12:08:01.800Z,1.30
2018-07-15T12:09:05.947Z,1.50
2018-07-15T12:10:09.903Z,1.40
2018-07-15T12:11:13.647Z,1.60
2018-07-15T12:12:17.101Z,1.50
2018-07-15T12:13:20.491Z,1.35
2018-07-15T12:14:23.887Z,1.80
2018-07-15T12:15:28.280Z,1.17
2018-07-15T12:16:33.243Z,1.40
2018-07-15T12:17:36.639Z,1.37
2018-07-15T12:18:40.108Z,1.40
2018-07-15T12:19:43.516Z,1.60
2018-07-15T12:20:47.892Z,1.50
2018-07-15T12:21:51.315Z,1.50
2018-07-15T12:22:54.742Z,1.50
2018-07-15T12:23:58.140Z,1.60
2018-07-15T12:25:01.412Z,1.50
2018-07-15T12:26:06.355Z,1.30
2018-07-15T12:27:09.995Z,1.70
2018-07-15T12:28:13.518Z,1.55
2018-07-15T12:29:16.887Z,0.98
2018-07-15T12:30:21.283Z,1.70
2018-07-15T12:31:25.672Z,1.45
2018-07-15T12:32:29.095Z,1.60
2018-07-15T12:33:32.476Z,1.52
2018-07-15T12:34:35.858Z,1.40
2018-07-15T12:35:40.267Z,1.65
2018-07-15T12:36:43.375Z,1.50
2018-07-15T12:37:46.776Z,2.00
2018-07-15T12:38:49.848Z,1.60
2018-07-15T12:39:52.922Z,1.25
2018-07-15T12:40:57.216Z,1.77
2018-07-15T12:42:00.326Z,1.65
2018-07-15T12:43:03.490Z,1.70
2018-07-15T12:44:06.579Z,1.65
2018-07-15T12:45:11.343Z,1.70
2018-07-15T12:46:18.946Z,1.80
2018-07-15T12:47:22.359Z,1.92
2018-07-15T12:48:25.747Z,1.80
2018-07-15T12:49:28.831Z,1.57
2018-07-15T12:50:33.323Z,1.85
2018-07-15T12:51:36.735Z,1.50
2018-07-15T12:52:40.137Z,1.98
2018-07-15T12:53:43.532Z,1.70
2018-07-15T12:54:46.931Z,1.92
2018-07-15T12:55:52.981Z,1.77
2018-07-15T12:56:56.407Z,1.50
2018-07-15T12:57:59.591Z,1.77
2018-07-15T12:59:02.758Z,1.87
2018-07-15T13:00:07.245Z,1.87
2018-07-15T13:01:11.680Z,1.60
2018-07-15T13:02:15.258Z,1.70
2018-07-15T13:03:18.655Z,1.22
2018-07-15T13:04:22.044Z,1.70
2018-07-15T13:05:26.728Z,1.80
2018-07-15T13:06:30.325Z,1.55
2018-07-15T13:07:33.748Z,1.83
2018-07-15T13:08:37.143Z,1.87
2018-07-15T13:09:40.547Z,1.72
2018-07-15T13:10:45.005Z,1.83
2018-07-15T13:11:48.431Z,1.60
2018-07-15T13:12:51.518Z,1.70
2018-07-15T13:13:54.614Z,1.80
2018-07-15T13:14:58.015Z,1.83
2018-07-15T13:16:02.561Z,1.90
2018-07-15T13:17:05.971Z,1.80
2018-07-15T13:18:09.384Z,1.77
2018-07-15T13:19:12.751Z,1.73
2018-07-15T13:20:17.185Z,1.80
2018-07-15T13:21:21.660Z,1.72
2018-07-15T13:22:25.071Z,1.83
2018-07-15T13:23:28.483Z,1.67
2018-07-15T13:24:31.873Z,1.67
2018-07-15T13:25:36.313Z,1.70
2018-07-15T13:26:39.716Z,1.60
2018-07-15T13:27:43.117Z,1.90
2018-07-15T13:28:46.543Z,1.73
2018-07-15T13:29:49.965Z,1.70
2018-07-15T13:30:54.417Z,1.63
2018-07-15T13:31:57.946Z,1.97
2018-07-15T13:33:01.356Z,1.40
2018-07-15T13:34:04.740Z,1.27
2018-07-15T13:35:09.341Z,1.40
2018-07-15T13:36:13.639Z,1.57
2018-07-15T13:37:17.135Z,1.40
2018-07-15T13:38:20.527Z,1.60
2018-07-15T13:39:23.907Z,1.57
2018-07-15T13:40:28.650Z,1.70
2018-07-15T13:41:32.132Z,1.35
2018-07-15T13:42:35.455Z,1.33
2018-07-15T13:43:38.855Z,1.60
2018-07-15T13:44:42.244Z,1.60
2018-07-15T13:45:46.670Z,1.40
2018-07-15T13:46:50.076Z,1.50
2018-07-15T13:47:53.444Z,1.63
2018-07-15T13:48:56.867Z,1.40
2018-07-15T13:49:59.940Z,1.47
2018-07-15T13:51:05.548Z,1.20
2018-07-15T13:52:08.940Z,1.40
2018-07-15T13:53:12.322Z,1.37
2018-07-15T13:54:15.735Z,1.40
2018-07-15T13:55:20.242Z,1.50
2018-07-15T13:56:24.466Z,1.30
2018-07-15T13:57:27.875Z,1.50
2018-07-15T13:58:31.280Z,1.30
2018-07-15T13:59:34.695Z,1.30
2018-07-15T14:00:39.051Z,1.40
2018-07-15T14:01:42.443Z,1.30
2018-07-15T14:02:45.827Z,1.20
2018-07-15T14:03:49.265Z,1.43
2018-07-15T14:04:52.626Z,1.50
2018-07-15T14:05:57.255Z,1.30
2018-07-15T14:07:00.791Z,1.77
2018-07-15T14:08:04.191Z,1.50
2018-07-15T14:09:07.571Z,1.70